Startpagina
METAR-TAF:

METAR-TAF

Vliegvelden :

Osijek, Kroatië

breedte: 45-27N, lengte: 018-48E, hoogte: 88 m

Actueel weer

Dit bericht is 23 minuten geleden gemaakt, om 14:00 UTC
Wind 7 kt uit het noordnoordoosten, variërend tussen het noordwesten en het oosten
Temperatuur 32°C
Vochtigheid 41%
Druk 1016 hPa
Zicht 10 km of meer
Weinig wolken op 3000 ft

METAR: LDOS 181400Z 02007KT 320V090 9999 FEW030 32/17 Q1016

Tijdstip: 16:23 (14:23 UTC)

Verwachting

Dit bericht is 2 uur en het 58 minuten geleden gemaakt, om 11:25 UTC
Verwachting geldig van 18 om 12 UTC tot 19 om 12 UTC
Wind 6 kt uit het oostnoordoosten
Zicht 10 km of meer
geen wolken onder 1500 m en geen cumulonimbus
Kans 30% :
Tijdelijke
van 18 om 13 UTC tot 18 om 17 UTC
Weinig wolken op 4500 ft, Cumulonimbus.
onweer, lichte regen

TAF: LDOS 181125Z 1812/1912 07006KT CAVOK TX32/1813Z TN18/1903Z PROB30 TEMPO 1813/1817 -TSRA FEW045CB

Waarnemingen en weersverwachtingen van meer dan 4000 vliegvelden (METAR en TAF).

De beschikbare stations zijn de gele en rode punten op de kaart.

Ga met uw muis naar het station om de naam te zien.

Klik dan om waarnemingen en weersverwachtingen te zien.

kaart wijzigen: klik op de groene knoppen met een zwart kruis om in te zoomen, op de groene knop met een streepje om uit te zoomen of op de groene pijlen voor aangrenzende kaarten.


METAR-TAF: